Cottondale, Alabama
Current Conditions -  °F | °C
As of 1:53 PM on Thursday 29 Jan 2015 (Local Time) from KTCL Reporting Station
Broken Clouds Broken Clouds  
Wind Chill: 68°   Ceiling: 11000
Heat Index: 68°   Visibility: 10mi
Dew Point: 47°   Wind: 9mph
Humidity: 47%   Direction: 180°S
Pressure: 30.1"   Gusts: NA
Location:  33.19°N, 87.45°W
Report Text: KTCL 291953Z 18008KT 10SM BKN110 20/08 A3010 RMK AO2 SLP191 T02000083
Loading
Personal Weather Stations






























Interactive Weather Map New forecast layout! Learn more

10-Day Weather Forecast

Advertisements
Track Severe Weather on mobile